createdAt,value
2023-04-02T00:02:33.536Z,3.89
2023-04-02T00:05:50.518Z,3.79
2023-04-02T00:08:29.833Z,3.91
2023-04-02T00:10:58.715Z,3.82
2023-04-02T00:13:33.651Z,3.89
2023-04-02T00:16:03.512Z,3.99
2023-04-02T00:18:32.296Z,3.80
2023-04-02T00:21:13.011Z,3.83
2023-04-02T00:23:42.364Z,3.87
2023-04-02T00:26:23.135Z,3.93
2023-04-02T00:28:53.156Z,3.82
2023-04-02T00:31:21.649Z,3.74
2023-04-02T00:33:50.445Z,3.57
2023-04-02T00:36:20.592Z,3.61
2023-04-02T00:38:49.092Z,3.71
2023-04-02T00:41:23.925Z,3.67
2023-04-02T00:43:54.594Z,3.74
2023-04-02T00:46:25.296Z,3.64
2023-04-02T00:48:56.193Z,3.59
2023-04-02T00:51:26.962Z,3.43
2023-04-02T00:53:56.950Z,3.51
2023-04-02T00:56:27.524Z,3.63
2023-04-02T00:58:57.989Z,3.42
2023-04-02T01:01:28.446Z,3.35
2023-04-02T01:04:01.359Z,3.43
2023-04-02T01:06:31.305Z,3.39
2023-04-02T01:09:13.644Z,3.53
2023-04-02T01:11:53.701Z,3.40
2023-04-02T01:14:36.082Z,3.61
2023-04-02T01:17:11.637Z,3.44
2023-04-02T01:20:08.094Z,3.51
2023-04-02T01:22:41.701Z,3.41
2023-04-02T01:25:15.472Z,3.41
2023-04-02T01:27:46.962Z,3.19
2023-04-02T01:30:16.920Z,3.32
2023-04-02T01:32:44.920Z,3.25
2023-04-02T01:35:13.165Z,3.17
2023-04-02T01:37:46.798Z,3.33
2023-04-02T01:40:24.200Z,3.35
2023-04-02T01:42:56.276Z,3.40
2023-04-02T01:45:25.890Z,3.33
2023-04-02T01:47:53.852Z,3.50
2023-04-02T01:50:31.733Z,3.34
2023-04-02T01:53:01.706Z,3.36
2023-04-02T01:55:36.391Z,3.54
2023-04-02T01:58:05.734Z,3.33
2023-04-02T02:00:36.448Z,3.20
2023-04-02T02:03:05.303Z,3.39
2023-04-02T02:05:33.930Z,3.22
2023-04-02T02:08:02.344Z,3.41
2023-04-02T02:10:35.602Z,3.35
2023-04-02T02:13:03.700Z,3.34
2023-04-02T02:15:34.735Z,3.14
2023-04-02T02:18:05.936Z,3.04
2023-04-02T02:20:34.924Z,3.26
2023-04-02T02:23:03.972Z,3.18
2023-04-02T02:25:34.172Z,3.29
2023-04-02T02:28:04.447Z,3.40
2023-04-02T02:30:35.934Z,3.40
2023-04-02T02:33:08.670Z,3.29
2023-04-02T02:35:40.203Z,3.33
2023-04-02T02:38:27.305Z,3.04
2023-04-02T02:40:58.332Z,3.08
2023-04-02T02:43:26.434Z,3.01
2023-04-02T02:45:57.254Z,3.03
2023-04-02T02:48:34.333Z,3.07
2023-04-02T02:51:03.587Z,3.18
2023-04-02T02:53:31.608Z,3.12
2023-04-02T02:56:00.366Z,3.12
2023-04-02T02:58:31.577Z,3.15
2023-04-02T03:01:01.630Z,3.03
2023-04-02T03:03:32.576Z,3.25
2023-04-02T03:06:05.351Z,3.12
2023-04-02T03:08:36.904Z,3.16
2023-04-02T03:11:09.442Z,3.13
2023-04-02T03:13:39.255Z,3.09
2023-04-02T03:16:13.017Z,3.07
2023-04-02T03:18:45.330Z,3.04
2023-04-02T03:21:20.219Z,3.03
2023-04-02T03:23:50.985Z,2.98
2023-04-02T03:26:20.988Z,2.93
2023-04-02T03:28:52.875Z,2.79
2023-04-02T03:31:26.588Z,2.90
2023-04-02T03:33:57.177Z,2.86
2023-04-02T03:36:29.591Z,2.82
2023-04-02T03:39:02.443Z,2.83
2023-04-02T03:41:34.520Z,2.75
2023-04-02T03:44:13.235Z,2.87
2023-04-02T03:46:44.426Z,2.94
2023-04-02T03:49:15.864Z,2.90
2023-04-02T03:51:51.987Z,2.87
2023-04-02T03:54:20.843Z,2.80
2023-04-02T03:56:48.880Z,2.78
2023-04-02T03:59:23.275Z,2.74
2023-04-02T04:01:56.492Z,2.75
2023-04-02T04:04:26.517Z,2.82
2023-04-02T04:06:55.114Z,2.85
2023-04-02T04:09:26.329Z,2.73
2023-04-02T04:11:57.854Z,2.85
2023-04-02T04:14:30.292Z,2.80
2023-04-02T04:17:04.526Z,2.66
2023-04-02T04:19:38.880Z,2.69
2023-04-02T04:22:11.587Z,2.77
2023-04-02T04:24:39.914Z,2.70
2023-04-02T04:27:13.609Z,2.81
2023-04-02T04:29:48.096Z,2.79
2023-04-02T04:32:27.840Z,2.70
2023-04-02T04:35:01.063Z,2.71
2023-04-02T04:37:35.198Z,2.73
2023-04-02T04:40:07.630Z,2.57
2023-04-02T04:42:37.763Z,2.61
2023-04-02T04:45:14.304Z,2.64
2023-04-02T04:47:49.158Z,2.74
2023-04-02T04:50:22.888Z,2.78
2023-04-02T04:52:50.807Z,2.61
2023-04-02T04:55:29.686Z,2.56
2023-04-02T04:58:01.240Z,2.60
2023-04-02T05:00:34.348Z,2.65
2023-04-02T05:03:10.315Z,2.59
2023-04-02T05:05:40.105Z,2.65
2023-04-02T05:08:13.295Z,2.57
2023-04-02T05:10:44.382Z,2.67
2023-04-02T05:13:17.054Z,2.53
2023-04-02T05:15:51.362Z,2.58
2023-04-02T05:18:26.365Z,2.62
2023-04-02T05:20:57.803Z,2.61
2023-04-02T05:23:28.361Z,2.66
2023-04-02T05:26:01.106Z,2.72
2023-04-02T05:28:34.824Z,2.66
2023-04-02T05:31:06.000Z,2.81
2023-04-02T05:33:36.701Z,2.79
2023-04-02T05:36:07.059Z,2.94
2023-04-02T05:38:37.161Z,2.98
2023-04-02T05:41:08.176Z,2.86
2023-04-02T05:43:38.396Z,3.03
2023-04-02T05:46:14.419Z,2.96
2023-04-02T05:48:44.640Z,3.00
2023-04-02T05:51:17.644Z,2.99
2023-04-02T05:53:48.849Z,3.07
2023-04-02T05:56:20.360Z,3.12
2023-04-02T05:58:51.610Z,3.11
2023-04-02T06:01:24.185Z,3.18
2023-04-02T06:03:58.699Z,3.20
2023-04-02T06:06:42.917Z,3.16
2023-04-02T06:09:14.604Z,3.21
2023-04-02T06:11:45.727Z,3.19
2023-04-02T06:14:14.504Z,3.17
2023-04-02T06:16:43.217Z,3.24
2023-04-02T06:19:17.394Z,3.31
2023-04-02T06:21:46.344Z,3.39
2023-04-02T06:24:17.715Z,3.40
2023-04-02T06:26:47.800Z,3.44
2023-04-02T06:29:19.795Z,3.45
2023-04-02T06:31:51.790Z,3.52
2023-04-02T06:34:23.068Z,3.65
2023-04-02T06:36:51.892Z,3.68
2023-04-02T06:39:22.399Z,3.64
2023-04-02T06:41:57.632Z,3.65
2023-04-02T06:44:28.324Z,3.73
2023-04-02T06:46:59.984Z,3.66
2023-04-02T06:49:34.377Z,3.83
2023-04-02T06:52:03.713Z,3.92
2023-04-02T06:54:31.688Z,3.95
2023-04-02T06:57:02.335Z,4.11
2023-04-02T06:59:30.408Z,4.15
2023-04-02T07:02:01.132Z,4.15
2023-04-02T07:04:30.625Z,4.20
2023-04-02T07:06:58.570Z,4.25
2023-04-02T07:09:27.097Z,4.27
2023-04-02T07:11:54.965Z,4.24
2023-04-02T07:14:22.901Z,4.29
2023-04-02T07:16:50.846Z,4.34
2023-04-02T07:19:21.347Z,4.40
2023-04-02T07:21:51.032Z,4.42
2023-04-02T07:24:18.988Z,4.51
2023-04-02T07:26:48.319Z,4.54
2023-04-02T07:29:17.922Z,4.61
2023-04-02T07:31:46.214Z,4.67
2023-04-02T07:34:14.192Z,4.73
2023-04-02T07:36:42.248Z,4.80
2023-04-02T07:39:12.257Z,4.86
2023-04-02T07:41:52.762Z,4.84
2023-04-02T07:44:20.718Z,4.89
2023-04-02T07:46:48.627Z,4.94
2023-04-02T07:49:16.802Z,4.99
2023-04-02T07:51:44.722Z,5.05
2023-04-02T07:54:13.999Z,5.10
2023-04-02T07:56:41.913Z,5.11
2023-04-02T07:59:10.405Z,5.19
2023-04-02T08:01:38.329Z,5.27
2023-04-02T08:04:07.831Z,5.29
2023-04-02T08:06:36.005Z,5.40
2023-04-02T08:09:04.109Z,5.43
2023-04-02T08:11:33.402Z,5.51
2023-04-02T08:14:01.436Z,5.48
2023-04-02T08:16:29.435Z,5.48
2023-04-02T08:18:57.346Z,5.59
2023-04-02T08:21:26.152Z,5.71
2023-04-02T08:23:54.111Z,5.77
2023-04-02T08:26:22.030Z,5.79
2023-04-02T08:28:51.487Z,5.84
2023-04-02T08:31:19.505Z,5.98
2023-04-02T08:33:47.983Z,6.12
2023-04-02T08:36:17.504Z,6.13
2023-04-02T08:38:46.256Z,6.15
2023-04-02T08:41:50.199Z,6.30
2023-04-02T08:44:38.657Z,6.28
2023-04-02T08:47:08.043Z,6.29
2023-04-02T08:49:39.426Z,6.31
2023-04-02T08:52:07.416Z,6.31
2023-04-02T08:54:38.076Z,6.27
2023-04-02T08:57:08.714Z,6.18
2023-04-02T08:59:40.423Z,6.17
2023-04-02T09:02:25.549Z,6.33
2023-04-02T09:04:53.602Z,6.14
2023-04-02T09:07:21.821Z,5.99
2023-04-02T09:09:51.095Z,6.07
2023-04-02T09:12:25.637Z,6.22
2023-04-02T09:15:01.868Z,6.49
2023-04-02T09:17:34.711Z,6.63
2023-04-02T09:20:17.975Z,6.78
2023-04-02T09:22:46.732Z,6.88
2023-04-02T09:25:17.999Z,6.93
2023-04-02T09:27:48.961Z,6.71
2023-04-02T09:30:26.839Z,6.59
2023-04-02T09:32:55.334Z,6.68
2023-04-02T09:35:26.892Z,6.78
2023-04-02T09:38:16.986Z,6.80
2023-04-02T09:40:48.251Z,6.86
2023-04-02T09:43:17.969Z,6.83
2023-04-02T09:45:57.961Z,6.92
2023-04-02T09:48:27.388Z,7.15
2023-04-02T09:51:06.951Z,7.26
2023-04-02T09:53:36.773Z,7.46
2023-04-02T09:56:16.756Z,7.51
2023-04-02T09:58:47.863Z,7.71
2023-04-02T10:01:29.287Z,7.76
2023-04-02T10:03:59.304Z,7.80
2023-04-02T10:06:29.352Z,7.94
2023-04-02T10:08:57.284Z,7.94
2023-04-02T10:11:43.574Z,7.97
2023-04-02T10:14:18.872Z,8.05
2023-04-02T10:16:51.960Z,7.99
2023-04-02T10:19:26.433Z,7.97
2023-04-02T10:21:57.985Z,8.05
2023-04-02T10:24:28.830Z,8.35
2023-04-02T10:27:03.291Z,8.47
2023-04-02T10:29:45.288Z,8.62
2023-04-02T10:32:17.789Z,8.83
2023-04-02T10:34:49.552Z,8.88
2023-04-02T10:37:59.910Z,9.13
2023-04-02T10:40:29.968Z,9.07
2023-04-02T10:43:31.294Z,8.98
2023-04-02T10:46:02.867Z,8.96
2023-04-02T10:48:39.516Z,8.98
2023-04-02T10:51:13.485Z,9.14
2023-04-02T10:53:47.180Z,9.12
2023-04-02T10:56:15.932Z,9.15
2023-04-02T10:58:52.672Z,9.28
2023-04-02T11:01:24.018Z,9.47
2023-04-02T11:03:57.992Z,9.53
2023-04-02T11:06:29.891Z,9.67
2023-04-02T11:09:00.486Z,9.77
2023-04-02T11:11:31.495Z,9.74
2023-04-02T11:14:01.826Z,9.56
2023-04-02T11:16:30.070Z,9.49
2023-04-02T11:19:25.623Z,9.50
2023-04-02T11:22:00.212Z,9.78
2023-04-02T11:24:38.062Z,9.87
2023-04-02T11:27:08.450Z,10.02
2023-04-02T11:29:37.897Z,10.07
2023-04-02T11:32:28.304Z,10.17
2023-04-02T11:35:27.047Z,10.27
2023-04-02T11:37:56.210Z,10.40
2023-04-02T11:40:46.971Z,10.45
2023-04-02T11:43:52.022Z,10.54
2023-04-02T11:46:46.863Z,10.70
2023-04-02T11:49:37.237Z,10.72
2023-04-02T11:52:21.807Z,10.76
2023-04-02T11:54:58.230Z,10.85
2023-04-02T11:57:44.135Z,10.74
2023-04-02T12:00:23.364Z,10.84
2023-04-02T12:03:06.943Z,11.00
2023-04-02T12:05:37.769Z,11.14
2023-04-02T12:08:17.692Z,11.31
2023-04-02T12:10:57.259Z,11.27
2023-04-02T12:13:52.855Z,11.37
2023-04-02T12:16:21.251Z,11.34
2023-04-02T12:18:53.764Z,11.23
2023-04-02T12:21:23.860Z,11.39
2023-04-02T12:23:55.127Z,11.68
2023-04-02T12:26:37.132Z,11.77
2023-04-02T12:29:18.763Z,11.91
2023-04-02T12:31:47.742Z,11.85
2023-04-02T12:34:16.694Z,12.03
2023-04-02T12:36:56.832Z,12.09
2023-04-02T12:39:28.244Z,11.98
2023-04-02T12:41:57.384Z,11.92
2023-04-02T12:44:27.172Z,12.03
2023-04-02T12:46:56.245Z,12.29
2023-04-02T12:49:32.682Z,12.40
2023-04-02T12:52:03.620Z,12.39
2023-04-02T12:54:37.067Z,12.48
2023-04-02T12:57:37.224Z,12.41
2023-04-02T13:00:33.704Z,12.31
2023-04-02T13:03:11.371Z,12.52
2023-04-02T13:05:42.011Z,12.54
2023-04-02T13:08:17.571Z,12.66
2023-04-02T13:10:47.022Z,12.81
2023-04-02T13:13:19.037Z,12.75
2023-04-02T13:15:47.178Z,12.81
2023-04-02T13:18:21.686Z,12.82
2023-04-02T13:20:59.372Z,12.79
2023-04-02T13:23:38.126Z,12.92
2023-04-02T13:26:18.885Z,12.94
2023-04-02T13:28:57.513Z,12.99
2023-04-02T13:31:25.574Z,13.02
2023-04-02T13:33:53.532Z,13.26
2023-04-02T13:36:21.503Z,13.53
2023-04-02T13:38:49.483Z,13.46
2023-04-02T13:41:22.599Z,13.35
2023-04-02T13:43:51.547Z,13.48
2023-04-02T13:46:22.523Z,13.35
2023-04-02T13:48:51.733Z,13.75
2023-04-02T13:51:20.390Z,13.44
2023-04-02T13:53:49.013Z,13.45
2023-04-02T13:56:16.954Z,13.41
2023-04-02T13:58:46.701Z,13.22
2023-04-02T14:01:14.909Z,13.56
2023-04-02T14:03:43.148Z,13.83
2023-04-02T14:06:16.367Z,13.80
2023-04-02T14:08:54.501Z,14.16
2023-04-02T14:11:31.387Z,14.15
2023-04-02T14:14:12.382Z,14.11
2023-04-02T14:16:52.007Z,14.22
2023-04-02T14:19:39.583Z,14.16
2023-04-02T14:22:15.769Z,14.25
2023-04-02T14:24:51.078Z,14.17
2023-04-02T14:27:28.467Z,14.34
2023-04-02T14:30:03.663Z,14.18
2023-04-02T14:32:38.443Z,14.04
2023-04-02T14:35:14.644Z,14.26
2023-04-02T14:37:49.578Z,14.32
2023-04-02T14:40:22.883Z,14.46
2023-04-02T14:42:55.314Z,14.47
2023-04-02T14:45:40.918Z,14.46
2023-04-02T14:48:21.344Z,14.18
2023-04-02T14:50:49.743Z,14.26
2023-04-02T14:53:22.600Z,14.62
2023-04-02T14:55:51.433Z,14.60
2023-04-02T14:58:23.636Z,14.28
2023-04-02T15:00:57.309Z,14.05
2023-04-02T15:03:29.101Z,14.13
2023-04-02T15:05:59.449Z,14.36
2023-04-02T15:08:28.517Z,14.34
2023-04-02T15:11:04.170Z,14.11
2023-04-02T15:13:38.134Z,13.90
2023-04-02T15:16:12.525Z,14.44
2023-04-02T15:18:40.741Z,14.71
2023-04-02T15:21:23.117Z,15.01
2023-04-02T15:23:56.341Z,14.64
2023-04-02T15:26:28.180Z,14.55
2023-04-02T15:29:02.236Z,14.93
2023-04-02T15:31:33.825Z,15.12
2023-04-02T15:34:13.320Z,14.79
2023-04-02T15:36:55.344Z,15.11
2023-04-02T15:39:43.483Z,15.50
2023-04-02T15:42:19.247Z,15.21
2023-04-02T15:44:57.879Z,15.63
2023-04-02T15:47:36.830Z,14.11
2023-04-02T15:50:15.464Z,14.05
2023-04-02T15:52:48.734Z,14.56
2023-04-02T15:55:24.662Z,15.06
2023-04-02T15:58:06.857Z,15.02
2023-04-02T16:00:40.366Z,14.79
2023-04-02T16:03:20.914Z,14.92
2023-04-02T16:05:56.391Z,15.05
2023-04-02T16:08:42.163Z,15.49
2023-04-02T16:11:12.600Z,15.39
2023-04-02T16:13:41.656Z,14.14
2023-04-02T16:16:13.145Z,14.32
2023-04-02T16:18:54.935Z,14.89
2023-04-02T16:21:24.699Z,15.54
2023-04-02T16:23:52.736Z,15.59
2023-04-02T16:26:33.418Z,15.64
2023-04-02T16:29:13.690Z,15.51
2023-04-02T16:31:48.985Z,15.11
2023-04-02T16:34:26.996Z,15.21
2023-04-02T16:37:00.034Z,15.35
2023-04-02T16:39:36.341Z,14.95
2023-04-02T16:42:11.423Z,15.17
2023-04-02T16:44:50.317Z,15.02
2023-04-02T16:47:32.458Z,14.66
2023-04-02T16:50:05.690Z,14.63
2023-04-02T16:52:42.489Z,14.26
2023-04-02T16:55:23.488Z,13.78
2023-04-02T16:57:56.675Z,14.30
2023-04-02T17:00:28.063Z,14.37
2023-04-02T17:03:05.660Z,13.99
2023-04-02T17:05:47.628Z,12.82
2023-04-02T17:08:34.312Z,11.94
2023-04-02T17:11:03.471Z,11.66
2023-04-02T17:13:37.339Z,11.11
2023-04-02T17:16:10.609Z,11.18
2023-04-02T17:18:39.825Z,10.99
2023-04-02T17:21:11.871Z,10.81
2023-04-02T17:23:55.156Z,10.75
2023-04-02T17:26:29.632Z,10.62
2023-04-02T17:28:59.238Z,10.47
2023-04-02T17:31:30.852Z,10.40
2023-04-02T17:33:58.943Z,10.15
2023-04-02T17:36:38.114Z,10.21
2023-04-02T17:39:13.045Z,10.03
2023-04-02T17:41:45.934Z,9.89
2023-04-02T17:44:33.779Z,9.80
2023-04-02T17:47:08.547Z,9.53
2023-04-02T17:49:41.420Z,9.62
2023-04-02T17:52:15.558Z,9.42
2023-04-02T17:54:48.273Z,9.46
2023-04-02T17:57:33.144Z,9.20
2023-04-02T18:00:13.286Z,9.06
2023-04-02T18:02:52.855Z,9.16
2023-04-02T18:05:26.925Z,9.14
2023-04-02T18:08:01.302Z,8.99
2023-04-02T18:10:32.560Z,8.87
2023-04-02T18:13:03.615Z,8.91
2023-04-02T18:16:07.028Z,8.66
2023-04-02T18:18:50.816Z,8.53
2023-04-02T18:21:25.708Z,8.52
2023-04-02T18:24:08.326Z,8.50
2023-04-02T18:26:41.186Z,8.50
2023-04-02T18:29:19.151Z,8.48
2023-04-02T18:31:52.004Z,8.33
2023-04-02T18:34:43.147Z,8.33
2023-04-02T18:37:20.385Z,8.03
2023-04-02T18:40:01.144Z,8.16
2023-04-02T18:42:41.142Z,7.94
2023-04-02T18:45:14.302Z,7.92
2023-04-02T18:47:47.727Z,7.89
2023-04-02T18:50:18.466Z,7.75
2023-04-02T18:52:47.003Z,7.81
2023-04-02T18:55:20.847Z,7.82
2023-04-02T18:57:51.457Z,7.64
2023-04-02T19:00:30.397Z,7.57
2023-04-02T19:03:01.818Z,7.57
2023-04-02T19:05:39.152Z,7.41
2023-04-02T19:08:12.900Z,7.43
2023-04-02T19:10:44.123Z,7.42
2023-04-02T19:13:15.009Z,7.36
2023-04-02T19:15:52.979Z,7.35
2023-04-02T19:18:28.357Z,7.27
2023-04-02T19:20:58.555Z,7.25
2023-04-02T19:23:34.433Z,7.15
2023-04-02T19:26:07.183Z,7.05
2023-04-02T19:28:40.580Z,7.14
2023-04-02T19:31:16.329Z,7.02
2023-04-02T19:33:49.899Z,7.07
2023-04-02T19:36:39.302Z,6.94
2023-04-02T19:39:39.641Z,6.81
2023-04-02T19:42:14.020Z,6.91
2023-04-02T19:44:45.262Z,6.79
2023-04-02T19:47:14.309Z,6.70
2023-04-02T19:49:42.467Z,6.69
2023-04-02T19:52:10.483Z,6.70
2023-04-02T19:54:38.829Z,6.45
2023-04-02T19:57:06.860Z,6.44
2023-04-02T19:59:36.133Z,6.35
2023-04-02T20:02:07.057Z,6.51
2023-04-02T20:04:35.050Z,6.49
2023-04-02T20:07:03.008Z,6.42
2023-04-02T20:09:31.034Z,6.27
2023-04-02T20:11:58.967Z,6.35
2023-04-02T20:14:26.860Z,6.27
2023-04-02T20:16:56.228Z,6.20
2023-04-02T20:19:24.203Z,6.21
2023-04-02T20:21:52.135Z,6.19
2023-04-02T20:24:20.051Z,6.18
2023-04-02T20:26:47.974Z,6.13
2023-04-02T20:29:15.879Z,6.10
2023-04-02T20:31:43.799Z,6.08
2023-04-02T20:34:13.407Z,6.02
2023-04-02T20:36:41.692Z,5.89
2023-04-02T20:39:10.810Z,5.87
2023-04-02T20:41:43.406Z,5.80
2023-04-02T20:44:12.442Z,5.70
2023-04-02T20:46:40.600Z,5.68
2023-04-02T20:49:08.596Z,5.67
2023-04-02T20:51:38.176Z,5.63
2023-04-02T20:54:06.170Z,5.53
2023-04-02T20:56:34.081Z,5.52
2023-04-02T20:59:02.000Z,5.48
2023-04-02T21:01:31.007Z,5.38
2023-04-02T21:04:00.665Z,5.38
2023-04-02T21:06:30.272Z,5.37
2023-04-02T21:08:59.756Z,5.30
2023-04-02T21:11:27.698Z,5.33
2023-04-02T21:13:55.607Z,5.28
2023-04-02T21:16:24.993Z,5.27
2023-04-02T21:18:53.947Z,5.29
2023-04-02T21:21:25.200Z,5.13
2023-04-02T21:23:55.856Z,5.02
2023-04-02T21:26:25.132Z,4.95
2023-04-02T21:28:53.029Z,4.95
2023-04-02T21:31:22.310Z,4.99
2023-04-02T21:33:52.453Z,4.94
2023-04-02T21:36:22.102Z,4.99
2023-04-02T21:38:51.427Z,4.96
2023-04-02T21:41:21.375Z,4.91
2023-04-02T21:43:51.408Z,4.87
2023-04-02T21:46:21.210Z,4.82
2023-04-02T21:48:50.199Z,4.83
2023-04-02T21:51:19.560Z,4.85
2023-04-02T21:53:47.490Z,4.82
2023-04-02T21:56:18.951Z,4.74
2023-04-02T21:58:47.917Z,4.74
2023-04-02T22:01:26.754Z,4.68
2023-04-02T22:03:56.139Z,4.67
2023-04-02T22:06:25.200Z,4.57
2023-04-02T22:08:55.430Z,4.40
2023-04-02T22:11:26.106Z,4.44
2023-04-02T22:13:54.306Z,4.41
2023-04-02T22:16:25.985Z,4.47
2023-04-02T22:19:09.857Z,4.34
2023-04-02T22:21:38.215Z,4.24
2023-04-02T22:24:09.127Z,4.23
2023-04-02T22:26:37.527Z,4.16
2023-04-02T22:29:06.098Z,3.94
2023-04-02T22:31:35.601Z,3.87
2023-04-02T22:34:04.588Z,3.93
2023-04-02T22:36:32.656Z,4.08
2023-04-02T22:39:01.110Z,3.93
2023-04-02T22:41:32.022Z,3.80
2023-04-02T22:44:01.047Z,2.96
2023-04-02T22:46:29.705Z,2.31
2023-04-02T22:48:59.489Z,2.00
2023-04-02T22:51:28.733Z,2.94
2023-04-02T22:53:57.388Z,3.54
2023-04-02T22:56:27.690Z,3.75
2023-04-02T22:58:55.585Z,3.88
2023-04-02T23:01:25.816Z,3.99
2023-04-02T23:03:54.610Z,4.11
2023-04-02T23:06:24.783Z,4.23
2023-04-02T23:08:53.239Z,3.92
2023-04-02T23:11:23.019Z,3.77
2023-04-02T23:13:52.579Z,3.81
2023-04-02T23:16:21.417Z,3.74
2023-04-02T23:18:49.823Z,3.69
2023-04-02T23:21:18.280Z,3.70
2023-04-02T23:23:47.976Z,3.69
2023-04-02T23:26:17.596Z,3.61
2023-04-02T23:28:45.570Z,3.49
2023-04-02T23:31:15.787Z,3.49
2023-04-02T23:33:44.309Z,3.21
2023-04-02T23:36:13.938Z,3.09
2023-04-02T23:38:41.949Z,2.77
2023-04-02T23:41:14.657Z,2.80
2023-04-02T23:43:42.653Z,3.07
2023-04-02T23:46:11.162Z,3.24
2023-04-02T23:48:39.193Z,3.13
2023-04-02T23:51:07.913Z,3.26
2023-04-02T23:53:36.103Z,3.33
2023-04-02T23:56:04.288Z,3.26
2023-04-02T23:58:33.596Z,3.28
